createdAt,value
2022-09-29T00:02:13.778Z,49.26
2022-09-29T00:04:59.620Z,49.44
2022-09-29T00:07:45.440Z,49.32
2022-09-29T00:10:31.658Z,49.18
2022-09-29T00:13:17.812Z,49.26
2022-09-29T00:16:04.764Z,49.38
2022-09-29T00:18:54.526Z,49.35
2022-09-29T00:21:40.661Z,49.28
2022-09-29T00:24:27.004Z,49.48
2022-09-29T00:27:15.364Z,49.52
2022-09-29T00:30:01.295Z,49.48
2022-09-29T00:32:47.151Z,49.47
2022-09-29T00:35:32.850Z,49.63
2022-09-29T00:38:18.484Z,49.73
2022-09-29T00:41:05.571Z,49.73
2022-09-29T00:44:13.950Z,50.00
2022-09-29T00:47:03.886Z,49.89
2022-09-29T00:49:54.192Z,49.92
2022-09-29T00:52:43.680Z,49.85
2022-09-29T00:55:37.324Z,50.17
2022-09-29T00:58:37.108Z,50.02
2022-09-29T01:01:24.501Z,50.09
2022-09-29T01:04:14.592Z,50.25
2022-09-29T01:07:00.662Z,50.10
2022-09-29T01:09:46.975Z,50.02
2022-09-29T01:12:32.978Z,50.20
2022-09-29T01:15:20.937Z,50.37
2022-09-29T01:18:07.905Z,49.87
2022-09-29T01:21:14.263Z,50.24
2022-09-29T01:24:14.422Z,50.23
2022-09-29T01:27:20.679Z,50.38
2022-09-29T01:30:11.210Z,50.43
2022-09-29T01:33:16.397Z,50.30
2022-09-29T01:36:30.110Z,50.07
2022-09-29T01:39:25.128Z,50.30
2022-09-29T01:42:24.522Z,50.54
2022-09-29T01:45:19.608Z,50.38
2022-09-29T01:48:09.525Z,50.59
2022-09-29T01:50:59.136Z,50.43
2022-09-29T01:53:54.904Z,50.37
2022-09-29T01:56:46.431Z,50.42
2022-09-29T02:00:11.662Z,50.89
2022-09-29T02:03:12.767Z,50.79
2022-09-29T02:06:02.027Z,50.68
2022-09-29T02:08:56.902Z,50.81
2022-09-29T02:11:42.988Z,51.00
2022-09-29T02:14:36.078Z,51.00
2022-09-29T02:17:26.614Z,50.72
2022-09-29T02:20:12.901Z,51.04
2022-09-29T02:22:58.802Z,50.97
2022-09-29T02:25:44.847Z,51.05
2022-09-29T02:28:30.883Z,50.95
2022-09-29T02:31:16.791Z,51.11
2022-09-29T02:34:04.011Z,50.92
2022-09-29T02:37:19.625Z,51.30
2022-09-29T02:40:25.410Z,51.48
2022-09-29T02:43:34.341Z,51.20
2022-09-29T02:46:45.121Z,51.61
2022-09-29T02:49:42.923Z,51.25
2022-09-29T02:52:55.168Z,51.20
2022-09-29T02:55:50.431Z,50.95
2022-09-29T02:58:54.671Z,51.43
2022-09-29T03:01:52.205Z,51.39
2022-09-29T03:04:38.395Z,51.17
2022-09-29T03:07:24.284Z,51.22
2022-09-29T03:10:11.425Z,51.41
2022-09-29T03:12:57.555Z,51.39
2022-09-29T03:15:43.947Z,51.62
2022-09-29T03:18:29.575Z,51.55
2022-09-29T03:21:15.354Z,51.46
2022-09-29T03:24:01.373Z,51.45
2022-09-29T03:26:47.042Z,51.57
2022-09-29T03:29:32.861Z,51.38
2022-09-29T03:32:18.714Z,51.55
2022-09-29T03:35:05.489Z,51.58
2022-09-29T03:37:51.406Z,51.78
2022-09-29T03:40:37.085Z,51.76
2022-09-29T03:43:23.182Z,51.96
2022-09-29T03:46:09.057Z,51.94
2022-09-29T03:48:55.363Z,51.77
2022-09-29T03:51:41.913Z,51.88
2022-09-29T03:54:28.148Z,52.06
2022-09-29T03:57:14.125Z,51.68
2022-09-29T03:59:59.784Z,51.66
2022-09-29T04:02:45.395Z,51.96
2022-09-29T04:05:31.273Z,51.80
2022-09-29T04:08:17.283Z,51.73
2022-09-29T04:11:03.830Z,51.72
2022-09-29T04:13:49.907Z,51.83
2022-09-29T04:16:35.939Z,52.14
2022-09-29T04:19:21.877Z,52.06
2022-09-29T04:22:11.713Z,52.12
2022-09-29T04:24:58.384Z,52.00
2022-09-29T04:27:44.393Z,52.32
2022-09-29T04:30:30.421Z,52.11
2022-09-29T04:33:16.144Z,52.14
2022-09-29T04:36:02.528Z,52.07
2022-09-29T04:38:50.300Z,52.07
2022-09-29T04:41:39.610Z,52.13
2022-09-29T04:44:26.197Z,52.04
2022-09-29T04:47:12.256Z,52.20
2022-09-29T04:49:58.288Z,52.43
2022-09-29T04:52:44.672Z,52.22
2022-09-29T04:55:30.748Z,52.00
2022-09-29T04:58:16.367Z,52.38
2022-09-29T05:01:10.521Z,52.63
2022-09-29T05:03:56.739Z,52.33
2022-09-29T05:06:42.534Z,52.46
2022-09-29T05:09:33.475Z,52.46
2022-09-29T05:12:19.843Z,52.50
2022-09-29T05:15:06.734Z,52.57
2022-09-29T05:17:53.021Z,52.39
2022-09-29T05:20:44.842Z,52.57
2022-09-29T05:23:44.725Z,52.32
2022-09-29T05:26:30.513Z,52.52
2022-09-29T05:29:17.073Z,52.33
2022-09-29T05:32:03.184Z,52.54
2022-09-29T05:34:50.452Z,52.44
2022-09-29T05:37:36.310Z,52.33
2022-09-29T05:40:24.759Z,52.47
2022-09-29T05:43:10.746Z,52.44
2022-09-29T05:46:04.574Z,52.62
2022-09-29T05:48:51.517Z,53.25
2022-09-29T05:51:38.619Z,52.47
2022-09-29T05:54:25.202Z,52.67
2022-09-29T05:57:11.118Z,52.67
2022-09-29T05:59:57.332Z,52.84
2022-09-29T06:02:43.229Z,52.69
2022-09-29T06:05:29.498Z,52.78
2022-09-29T06:08:15.867Z,52.68
2022-09-29T06:11:10.542Z,53.25
2022-09-29T06:13:56.685Z,52.86
2022-09-29T06:16:42.974Z,52.67
2022-09-29T06:19:28.815Z,53.14
2022-09-29T06:22:14.649Z,52.88
2022-09-29T06:25:00.266Z,53.03
2022-09-29T06:27:45.992Z,52.99
2022-09-29T06:30:31.697Z,53.23
2022-09-29T06:33:18.202Z,52.88
2022-09-29T06:36:27.114Z,53.11
2022-09-29T06:39:14.286Z,52.88
2022-09-29T06:42:01.153Z,53.20
2022-09-29T06:44:47.371Z,53.30
2022-09-29T06:47:33.124Z,52.92
2022-09-29T06:50:20.827Z,53.04
2022-09-29T06:53:07.625Z,53.20
2022-09-29T06:55:54.403Z,53.14
2022-09-29T06:58:40.457Z,53.17
2022-09-29T07:01:26.544Z,53.23
2022-09-29T07:04:12.794Z,53.35
2022-09-29T07:06:58.502Z,53.33
2022-09-29T07:09:44.230Z,53.59
2022-09-29T07:12:30.336Z,53.50
2022-09-29T07:15:16.314Z,53.27
2022-09-29T07:18:02.226Z,53.58
2022-09-29T07:20:48.311Z,53.32
2022-09-29T07:23:34.331Z,53.51
2022-09-29T07:26:20.426Z,53.46
2022-09-29T07:29:06.147Z,53.50
2022-09-29T07:31:53.093Z,53.65
2022-09-29T07:34:39.227Z,53.62
2022-09-29T07:37:25.371Z,53.39
2022-09-29T07:40:11.216Z,53.35
2022-09-29T07:42:56.967Z,53.24
2022-09-29T07:45:50.484Z,53.53
2022-09-29T07:48:37.300Z,53.53
2022-09-29T07:51:23.215Z,53.45
2022-09-29T07:54:09.033Z,53.45
2022-09-29T07:56:55.072Z,53.48
2022-09-29T07:59:47.447Z,53.49
2022-09-29T08:02:38.490Z,53.56
2022-09-29T08:05:24.391Z,53.51
2022-09-29T08:08:14.278Z,53.48
2022-09-29T08:11:19.830Z,53.42
2022-09-29T08:14:12.059Z,52.89
2022-09-29T08:16:58.099Z,53.33
2022-09-29T08:19:44.219Z,53.23
2022-09-29T08:22:30.163Z,53.25
2022-09-29T08:25:16.800Z,53.31
2022-09-29T08:28:02.896Z,53.33
2022-09-29T08:30:48.849Z,53.25
2022-09-29T08:33:35.884Z,53.39
2022-09-29T08:36:21.984Z,53.33
2022-09-29T08:39:09.813Z,53.40
2022-09-29T08:42:45.796Z,53.44
2022-09-29T08:45:38.450Z,53.36
2022-09-29T08:48:26.832Z,53.31
2022-09-29T08:51:36.277Z,53.32
2022-09-29T08:54:39.471Z,53.28
2022-09-29T08:57:27.632Z,53.08
2022-09-29T09:00:16.933Z,53.14
2022-09-29T09:03:04.325Z,53.32
2022-09-29T09:05:59.671Z,53.25
2022-09-29T09:09:06.675Z,53.32
2022-09-29T09:12:14.196Z,53.36
2022-09-29T09:15:18.862Z,53.30
2022-09-29T09:18:32.122Z,53.18
2022-09-29T09:21:43.050Z,53.19
2022-09-29T09:24:34.108Z,53.13
2022-09-29T09:27:23.713Z,53.21
2022-09-29T09:30:16.581Z,53.23
2022-09-29T09:33:13.124Z,53.26
2022-09-29T09:36:34.242Z,53.14
2022-09-29T09:39:25.955Z,53.16
2022-09-29T09:42:21.602Z,53.25
2022-09-29T09:45:14.786Z,53.30
2022-09-29T09:48:16.455Z,53.04
2022-09-29T09:51:45.445Z,53.46
2022-09-29T09:54:34.997Z,53.20
2022-09-29T09:58:00.703Z,53.29
2022-09-29T10:01:08.152Z,53.21
2022-09-29T10:03:56.173Z,53.33
2022-09-29T10:06:42.508Z,53.37
2022-09-29T10:09:28.532Z,53.38
2022-09-29T10:12:19.109Z,53.50
2022-09-29T10:15:12.852Z,53.37
2022-09-29T10:18:08.095Z,53.58
2022-09-29T10:20:53.854Z,53.58
2022-09-29T10:23:40.717Z,53.57
2022-09-29T10:26:32.602Z,53.68
2022-09-29T10:29:34.847Z,53.61
2022-09-29T10:32:27.719Z,53.72
2022-09-29T10:35:29.391Z,53.74
2022-09-29T10:38:25.211Z,53.71
2022-09-29T10:41:10.882Z,53.77
2022-09-29T10:43:56.909Z,53.76
2022-09-29T10:46:53.660Z,53.95
2022-09-29T10:49:39.977Z,53.87
2022-09-29T10:52:33.644Z,54.03
2022-09-29T10:55:24.674Z,53.91
2022-09-29T10:58:44.783Z,54.18
2022-09-29T11:01:49.749Z,54.06
2022-09-29T11:04:40.017Z,53.88
2022-09-29T11:07:25.923Z,53.91
2022-09-29T11:10:29.181Z,54.11
2022-09-29T11:13:24.900Z,53.97
2022-09-29T11:16:20.116Z,53.85
2022-09-29T11:19:07.406Z,54.02
2022-09-29T11:22:16.836Z,54.11
2022-09-29T11:25:33.758Z,54.15
2022-09-29T11:28:41.106Z,53.99
2022-09-29T11:32:02.254Z,54.10
2022-09-29T11:35:06.924Z,54.18
2022-09-29T11:38:23.669Z,54.21
2022-09-29T11:41:09.285Z,54.04
2022-09-29T11:44:05.444Z,54.11
2022-09-29T11:47:03.674Z,54.13
2022-09-29T11:49:56.448Z,54.10
2022-09-29T11:52:48.956Z,54.08
2022-09-29T11:55:49.334Z,54.02
2022-09-29T11:58:54.445Z,54.34
2022-09-29T12:02:05.410Z,54.07
2022-09-29T12:05:15.135Z,54.33
2022-09-29T12:08:27.336Z,54.42
2022-09-29T12:11:54.892Z,54.46
2022-09-29T12:15:10.038Z,54.47
2022-09-29T12:18:01.379Z,54.32
2022-09-29T12:20:50.667Z,54.42
2022-09-29T12:23:38.145Z,54.41
2022-09-29T12:26:25.485Z,54.46
2022-09-29T12:29:31.749Z,54.56
2022-09-29T12:32:30.515Z,54.79
2022-09-29T12:35:32.987Z,54.73
2022-09-29T12:38:25.277Z,54.57
2022-09-29T12:41:27.150Z,54.82
2022-09-29T12:44:25.286Z,54.82
2022-09-29T12:47:35.706Z,54.92
2022-09-29T12:50:24.772Z,54.71
2022-09-29T12:53:31.816Z,54.93
2022-09-29T12:56:26.789Z,54.94
2022-09-29T12:59:32.021Z,55.02
2022-09-29T13:02:33.556Z,55.19
2022-09-29T13:05:51.744Z,55.14
2022-09-29T13:08:53.119Z,55.03
2022-09-29T13:11:59.203Z,55.17
2022-09-29T13:15:13.471Z,55.55
2022-09-29T13:18:31.959Z,55.09
2022-09-29T13:21:40.410Z,55.21
2022-09-29T13:24:48.825Z,55.40
2022-09-29T13:27:42.566Z,55.33
2022-09-29T13:30:32.260Z,55.40
2022-09-29T13:33:23.499Z,55.38
2022-09-29T13:36:10.208Z,55.30
2022-09-29T13:38:58.438Z,55.33
2022-09-29T13:41:44.609Z,55.56
2022-09-29T13:44:30.810Z,55.74
2022-09-29T13:47:34.748Z,55.62
2022-09-29T13:50:52.863Z,55.64
2022-09-29T13:53:38.705Z,55.69
2022-09-29T13:56:24.728Z,55.66
2022-09-29T13:59:15.635Z,55.70
2022-09-29T14:02:03.211Z,55.63
2022-09-29T14:04:49.212Z,55.66
2022-09-29T14:07:56.336Z,55.90
2022-09-29T14:10:45.697Z,55.84
2022-09-29T14:13:40.622Z,55.85
2022-09-29T14:16:47.082Z,55.83
2022-09-29T14:19:51.262Z,55.87
2022-09-29T14:22:37.088Z,55.72
2022-09-29T14:25:40.748Z,55.90
2022-09-29T14:28:35.506Z,55.96
2022-09-29T14:31:24.580Z,56.00
2022-09-29T14:34:14.811Z,55.99
2022-09-29T14:37:01.096Z,55.96
2022-09-29T14:40:09.494Z,56.14
2022-09-29T14:43:17.196Z,56.28
2022-09-29T14:46:44.447Z,55.98
2022-09-29T14:50:20.722Z,56.23
2022-09-29T14:53:28.378Z,56.39
2022-09-29T14:56:29.274Z,56.24
2022-09-29T14:59:45.780Z,56.34
2022-09-29T15:02:35.780Z,56.17
2022-09-29T15:05:29.985Z,56.30
2022-09-29T15:08:28.988Z,56.46
2022-09-29T15:11:30.867Z,56.37
2022-09-29T15:14:28.661Z,56.38
2022-09-29T15:17:42.189Z,56.34
2022-09-29T15:20:52.778Z,56.57
2022-09-29T15:24:20.112Z,56.46
2022-09-29T15:27:09.465Z,56.43
2022-09-29T15:29:56.683Z,56.36
2022-09-29T15:32:42.859Z,56.31
2022-09-29T15:35:30.179Z,56.21
2022-09-29T15:38:28.972Z,56.51
2022-09-29T15:41:20.353Z,56.39
2022-09-29T15:44:20.098Z,56.51
2022-09-29T15:47:06.469Z,56.46
2022-09-29T15:49:53.363Z,56.42
2022-09-29T15:52:39.590Z,56.41
2022-09-29T15:55:25.915Z,56.43
2022-09-29T15:58:26.940Z,56.62
2022-09-29T16:01:15.233Z,56.52
2022-09-29T16:04:01.810Z,56.29
2022-09-29T16:06:48.482Z,56.64
2022-09-29T16:09:36.262Z,56.62
2022-09-29T16:12:22.083Z,56.48
2022-09-29T16:15:12.894Z,56.71
2022-09-29T16:18:03.217Z,56.74
2022-09-29T16:20:49.491Z,56.83
2022-09-29T16:23:43.574Z,56.87
2022-09-29T16:26:32.466Z,56.78
2022-09-29T16:29:18.281Z,56.87
2022-09-29T16:32:43.539Z,57.09
2022-09-29T16:35:48.549Z,57.11
2022-09-29T16:38:36.647Z,57.09
2022-09-29T16:41:37.795Z,57.18
2022-09-29T16:44:36.228Z,57.16
2022-09-29T16:47:27.632Z,57.40
2022-09-29T16:50:14.603Z,57.33
2022-09-29T16:53:00.858Z,57.44
2022-09-29T16:55:59.982Z,57.49
2022-09-29T16:59:11.554Z,57.64
2022-09-29T17:01:57.282Z,57.40
2022-09-29T17:04:43.141Z,57.57
2022-09-29T17:07:29.282Z,57.68
2022-09-29T17:10:17.468Z,57.61
2022-09-29T17:13:13.922Z,57.85
2022-09-29T17:16:00.858Z,57.72
2022-09-29T17:18:56.323Z,57.97
2022-09-29T17:21:42.485Z,57.93
2022-09-29T17:24:30.306Z,57.84
2022-09-29T17:27:34.603Z,58.00
2022-09-29T17:30:22.917Z,57.95
2022-09-29T17:33:15.441Z,58.06
2022-09-29T17:36:01.736Z,58.17
2022-09-29T17:38:48.793Z,58.21
2022-09-29T17:41:34.483Z,58.30
2022-09-29T17:44:20.541Z,58.42
2022-09-29T17:47:24.280Z,58.19
2022-09-29T17:50:19.149Z,58.39
2022-09-29T17:53:05.146Z,58.37
2022-09-29T17:55:54.557Z,58.44
2022-09-29T17:58:40.401Z,58.44
2022-09-29T18:01:26.470Z,58.34
2022-09-29T18:04:12.591Z,58.50
2022-09-29T18:06:58.690Z,58.30
2022-09-29T18:09:45.058Z,58.61
2022-09-29T18:12:30.687Z,58.58
2022-09-29T18:15:17.260Z,58.70
2022-09-29T18:18:05.521Z,58.60
2022-09-29T18:20:52.088Z,58.44
2022-09-29T18:23:38.881Z,58.63
2022-09-29T18:26:25.081Z,58.82
2022-09-29T18:29:17.022Z,58.97
2022-09-29T18:32:02.711Z,58.88
2022-09-29T18:34:48.400Z,58.90
2022-09-29T18:37:34.297Z,58.77
2022-09-29T18:40:21.016Z,58.96
2022-09-29T18:43:07.964Z,58.96
2022-09-29T18:45:55.641Z,58.85
2022-09-29T18:48:42.151Z,58.84
2022-09-29T18:51:28.717Z,59.03
2022-09-29T18:54:14.825Z,58.85
2022-09-29T18:57:01.590Z,58.83
2022-09-29T18:59:50.362Z,59.07
2022-09-29T19:02:37.709Z,59.13
2022-09-29T19:05:29.112Z,59.08
2022-09-29T19:08:16.283Z,59.23
2022-09-29T19:11:04.766Z,59.03
2022-09-29T19:13:52.574Z,59.24
2022-09-29T19:16:38.501Z,59.10
2022-09-29T19:19:25.113Z,59.23
2022-09-29T19:22:12.826Z,59.29
2022-09-29T19:24:58.924Z,59.15
2022-09-29T19:27:45.104Z,59.31
2022-09-29T19:30:35.333Z,59.19
2022-09-29T19:33:23.014Z,59.27
2022-09-29T19:36:14.256Z,59.29
2022-09-29T19:39:01.395Z,59.28
2022-09-29T19:41:47.432Z,59.32
2022-09-29T19:44:36.919Z,59.35
2022-09-29T19:47:23.109Z,59.29
2022-09-29T19:50:28.211Z,59.05
2022-09-29T19:53:14.173Z,59.48
2022-09-29T19:56:00.094Z,59.59
2022-09-29T19:58:45.823Z,59.42
2022-09-29T20:01:31.534Z,59.48
2022-09-29T20:04:19.252Z,59.39
2022-09-29T20:07:06.156Z,59.60
2022-09-29T20:09:51.969Z,59.44
2022-09-29T20:12:38.446Z,59.58
2022-09-29T20:15:25.340Z,59.52
2022-09-29T20:18:11.462Z,59.41
2022-09-29T20:20:57.704Z,59.53
2022-09-29T20:23:43.484Z,59.66
2022-09-29T20:26:29.332Z,59.34
2022-09-29T20:29:18.473Z,59.57
2022-09-29T20:32:05.804Z,59.75
2022-09-29T20:34:51.924Z,59.70
2022-09-29T20:37:38.997Z,59.65
2022-09-29T20:40:25.183Z,59.58
2022-09-29T20:43:17.204Z,59.71
2022-09-29T20:46:05.553Z,59.83
2022-09-29T20:48:56.204Z,59.87
2022-09-29T20:51:43.433Z,59.71
2022-09-29T20:54:29.484Z,59.85
2022-09-29T20:57:18.380Z,59.66
2022-09-29T21:00:06.431Z,59.77
2022-09-29T21:02:52.347Z,59.77
2022-09-29T21:05:38.813Z,59.59
2022-09-29T21:08:27.670Z,59.75
2022-09-29T21:11:14.102Z,59.77
2022-09-29T21:13:59.819Z,59.96
2022-09-29T21:16:48.788Z,59.75
2022-09-29T21:19:34.964Z,59.73
2022-09-29T21:22:25.295Z,59.89
2022-09-29T21:25:13.344Z,59.76
2022-09-29T21:28:00.558Z,59.69
2022-09-29T21:30:46.596Z,59.91
2022-09-29T21:33:33.407Z,59.71
2022-09-29T21:36:19.336Z,59.74
2022-09-29T21:39:08.588Z,59.94
2022-09-29T21:41:55.010Z,59.85
2022-09-29T21:44:40.746Z,59.95
2022-09-29T21:47:46.737Z,59.85
2022-09-29T21:50:32.608Z,59.90
2022-09-29T21:53:18.642Z,59.88
2022-09-29T21:56:18.223Z,60.15
2022-09-29T21:59:04.146Z,60.19
2022-09-29T22:01:50.877Z,59.88
2022-09-29T22:04:37.205Z,60.15
2022-09-29T22:07:23.043Z,60.14
2022-09-29T22:10:09.394Z,60.25
2022-09-29T22:12:55.380Z,60.08
2022-09-29T22:15:41.654Z,60.02
2022-09-29T22:18:37.426Z,60.00
2022-09-29T22:21:27.785Z,60.27
2022-09-29T22:24:13.951Z,60.21
2022-09-29T22:26:59.885Z,60.42
2022-09-29T22:29:45.894Z,60.10
2022-09-29T22:32:31.656Z,60.35
2022-09-29T22:35:19.860Z,60.09
2022-09-29T22:38:08.246Z,60.33
2022-09-29T22:40:54.736Z,60.21
2022-09-29T22:43:40.840Z,60.47
2022-09-29T22:46:28.762Z,60.34
2022-09-29T22:49:14.571Z,60.21
2022-09-29T22:52:00.761Z,60.46
2022-09-29T22:54:47.737Z,60.20
2022-09-29T22:57:36.754Z,60.54
2022-09-29T23:00:22.616Z,60.50
2022-09-29T23:03:10.898Z,60.26
2022-09-29T23:05:58.463Z,60.62
2022-09-29T23:08:44.428Z,60.52
2022-09-29T23:11:31.459Z,60.42
2022-09-29T23:14:17.710Z,60.64
2022-09-29T23:17:03.887Z,60.43
2022-09-29T23:19:49.761Z,60.50
2022-09-29T23:22:35.917Z,60.52
2022-09-29T23:25:21.817Z,60.43
2022-09-29T23:28:07.491Z,60.49
2022-09-29T23:30:53.574Z,60.67
2022-09-29T23:33:39.791Z,60.67
2022-09-29T23:36:28.908Z,60.44
2022-09-29T23:39:15.161Z,60.66
2022-09-29T23:42:01.055Z,60.74
2022-09-29T23:44:46.864Z,60.67
2022-09-29T23:47:34.386Z,60.62
2022-09-29T23:50:20.016Z,60.56
2022-09-29T23:53:05.807Z,60.84
2022-09-29T23:55:51.719Z,60.71
2022-09-29T23:58:37.665Z,60.82
